sensor_id;sensor_type;location;lat;lon;timestamp;P1;durP1;ratioP1;P2;durP2;ratioP2
25207;SDS011;13153;52.316;21.166;2023-09-12T00:02:07;16.70;;;14.50;;
25207;SDS011;13153;52.316;21.166;2023-09-12T00:04:34;19.10;;;15.45;;
25207;SDS011;13153;52.316;21.166;2023-09-12T00:07:00;18.02;;;15.35;;
25207;SDS011;13153;52.316;21.166;2023-09-12T00:09:26;17.70;;;15.32;;
25207;SDS011;13153;52.316;21.166;2023-09-12T00:11:52;21.98;;;15.70;;
25207;SDS011;13153;52.316;21.166;2023-09-12T00:14:19;20.65;;;15.13;;
25207;SDS011;13153;52.316;21.166;2023-09-12T00:16:46;21.45;;;15.85;;
25207;SDS011;13153;52.316;21.166;2023-09-12T00:19:12;20.60;;;16.17;;
25207;SDS011;13153;52.316;21.166;2023-09-12T00:21:38;19.65;;;15.05;;
25207;SDS011;13153;52.316;21.166;2023-09-12T00:24:03;18.30;;;15.35;;
25207;SDS011;13153;52.316;21.166;2023-09-12T00:26:29;21.75;;;15.23;;
25207;SDS011;13153;52.316;21.166;2023-09-12T00:28:55;21.27;;;15.80;;
25207;SDS011;13153;52.316;21.166;2023-09-12T00:31:22;23.80;;;16.58;;
25207;SDS011;13153;52.316;21.166;2023-09-12T00:33:47;19.55;;;15.77;;
25207;SDS011;13153;52.316;21.166;2023-09-12T00:36:13;23.05;;;15.48;;
25207;SDS011;13153;52.316;21.166;2023-09-12T00:38:39;23.80;;;15.38;;
25207;SDS011;13153;52.316;21.166;2023-09-12T00:41:05;21.48;;;16.33;;
25207;SDS011;13153;52.316;21.166;2023-09-12T00:43:30;20.02;;;16.52;;
25207;SDS011;13153;52.316;21.166;2023-09-12T00:45:56;22.40;;;17.13;;
25207;SDS011;13153;52.316;21.166;2023-09-12T00:48:22;22.83;;;16.65;;
25207;SDS011;13153;52.316;21.166;2023-09-12T00:50:49;22.35;;;16.63;;
25207;SDS011;13153;52.316;21.166;2023-09-12T00:53:16;25.73;;;16.67;;
25207;SDS011;13153;52.316;21.166;2023-09-12T00:55:45;18.83;;;15.70;;
25207;SDS011;13153;52.316;21.166;2023-09-12T00:58:21;21.60;;;17.35;;
25207;SDS011;13153;52.316;21.166;2023-09-12T01:00:48;22.40;;;15.35;;
25207;SDS011;13153;52.316;21.166;2023-09-12T01:03:14;19.50;;;15.23;;
25207;SDS011;13153;52.316;21.166;2023-09-12T01:05:43;18.42;;;15.68;;
25207;SDS011;13153;52.316;21.166;2023-09-12T01:08:11;20.35;;;16.10;;
25207;SDS011;13153;52.316;21.166;2023-09-12T01:10:37;22.17;;;15.75;;
25207;SDS011;13153;52.316;21.166;2023-09-12T01:13:03;20.80;;;16.02;;
25207;SDS011;13153;52.316;21.166;2023-09-12T01:15:29;23.67;;;16.42;;
25207;SDS011;13153;52.316;21.166;2023-09-12T01:17:54;22.60;;;16.83;;
25207;SDS011;13153;52.316;21.166;2023-09-12T01:20:32;22.67;;;16.52;;
25207;SDS011;13153;52.316;21.166;2023-09-12T01:23:07;22.50;;;16.80;;
25207;SDS011;13153;52.316;21.166;2023-09-12T01:28:43;22.88;;;17.00;;
25207;SDS011;13153;52.316;21.166;2023-09-12T01:31:12;25.15;;;18.02;;
25207;SDS011;13153;52.316;21.166;2023-09-12T01:33:40;21.17;;;16.45;;
25207;SDS011;13153;52.316;21.166;2023-09-12T01:36:06;25.90;;;17.08;;
25207;SDS011;13153;52.316;21.166;2023-09-12T01:38:34;20.92;;;16.50;;
25207;SDS011;13153;52.316;21.166;2023-09-12T01:41:00;23.40;;;16.60;;
25207;SDS011;13153;52.316;21.166;2023-09-12T01:43:27;19.80;;;16.35;;
25207;SDS011;13153;52.316;21.166;2023-09-12T01:45:57;23.02;;;16.33;;
25207;SDS011;13153;52.316;21.166;2023-09-12T01:48:26;22.25;;;16.73;;
25207;SDS011;13153;52.316;21.166;2023-09-12T01:51:00;22.67;;;16.98;;
25207;SDS011;13153;52.316;21.166;2023-09-12T01:53:27;23.13;;;16.58;;
25207;SDS011;13153;52.316;21.166;2023-09-12T01:55:55;29.25;;;17.40;;
25207;SDS011;13153;52.316;21.166;2023-09-12T01:58:24;24.23;;;16.60;;
25207;SDS011;13153;52.316;21.166;2023-09-12T02:00:51;26.17;;;17.58;;
25207;SDS011;13153;52.316;21.166;2023-09-12T02:03:17;23.05;;;17.05;;
25207;SDS011;13153;52.316;21.166;2023-09-12T02:05:43;21.50;;;16.83;;
25207;SDS011;13153;52.316;21.166;2023-09-12T02:08:09;24.73;;;17.08;;
25207;SDS011;13153;52.316;21.166;2023-09-12T02:10:35;22.10;;;17.02;;
25207;SDS011;13153;52.316;21.166;2023-09-12T02:13:01;21.02;;;16.80;;
25207;SDS011;13153;52.316;21.166;2023-09-12T02:15:26;25.20;;;17.27;;
25207;SDS011;13153;52.316;21.166;2023-09-12T02:17:52;26.33;;;17.33;;
25207;SDS011;13153;52.316;21.166;2023-09-12T02:20:18;24.55;;;16.95;;
25207;SDS011;13153;52.316;21.166;2023-09-12T02:22:44;27.23;;;16.48;;
25207;SDS011;13153;52.316;21.166;2023-09-12T02:25:10;26.75;;;17.02;;
25207;SDS011;13153;52.316;21.166;2023-09-12T02:27:36;28.38;;;17.15;;
25207;SDS011;13153;52.316;21.166;2023-09-12T02:30:02;24.67;;;16.30;;
25207;SDS011;13153;52.316;21.166;2023-09-12T02:32:29;21.98;;;16.60;;
25207;SDS011;13153;52.316;21.166;2023-09-12T02:34:55;25.88;;;16.80;;
25207;SDS011;13153;52.316;21.166;2023-09-12T02:37:22;27.67;;;17.48;;
25207;SDS011;13153;52.316;21.166;2023-09-12T02:39:48;28.05;;;18.88;;
25207;SDS011;13153;52.316;21.166;2023-09-12T02:42:13;33.38;;;18.48;;
25207;SDS011;13153;52.316;21.166;2023-09-12T02:44:39;25.80;;;17.98;;
25207;SDS011;13153;52.316;21.166;2023-09-12T02:47:05;24.88;;;18.42;;
25207;SDS011;13153;52.316;21.166;2023-09-12T02:49:31;29.48;;;18.00;;
25207;SDS011;13153;52.316;21.166;2023-09-12T02:51:57;28.63;;;18.83;;
25207;SDS011;13153;52.316;21.166;2023-09-12T02:54:23;28.48;;;18.50;;
25207;SDS011;13153;52.316;21.166;2023-09-12T02:56:48;30.52;;;19.63;;
25207;SDS011;13153;52.316;21.166;2023-09-12T02:59:14;28.55;;;19.25;;
25207;SDS011;13153;52.316;21.166;2023-09-12T03:01:40;28.35;;;18.45;;
25207;SDS011;13153;52.316;21.166;2023-09-12T03:04:06;26.60;;;18.63;;
25207;SDS011;13153;52.316;21.166;2023-09-12T03:06:32;26.52;;;18.90;;
25207;SDS011;13153;52.316;21.166;2023-09-12T03:08:58;28.15;;;18.30;;
25207;SDS011;13153;52.316;21.166;2023-09-12T03:11:25;24.20;;;17.33;;
25207;SDS011;13153;52.316;21.166;2023-09-12T03:13:52;22.00;;;16.80;;
25207;SDS011;13153;52.316;21.166;2023-09-12T03:16:18;26.50;;;17.10;;
25207;SDS011;13153;52.316;21.166;2023-09-12T03:18:44;26.08;;;17.88;;
25207;SDS011;13153;52.316;21.166;2023-09-12T03:21:10;42.30;;;27.73;;
25207;SDS011;13153;52.316;21.166;2023-09-12T03:23:35;66.43;;;39.47;;
25207;SDS011;13153;52.316;21.166;2023-09-12T03:26:04;48.53;;;31.30;;
25207;SDS011;13153;52.316;21.166;2023-09-12T03:28:32;32.03;;;22.23;;
25207;SDS011;13153;52.316;21.166;2023-09-12T03:31:08;30.45;;;19.20;;
25207;SDS011;13153;52.316;21.166;2023-09-12T03:33:39;28.88;;;18.02;;
25207;SDS011;13153;52.316;21.166;2023-09-12T03:36:07;25.42;;;18.65;;
25207;SDS011;13153;52.316;21.166;2023-09-12T03:38:34;24.83;;;17.85;;
25207;SDS011;13153;52.316;21.166;2023-09-12T03:41:00;25.60;;;18.25;;
25207;SDS011;13153;52.316;21.166;2023-09-12T03:43:27;24.92;;;19.83;;
25207;SDS011;13153;52.316;21.166;2023-09-12T03:45:53;28.40;;;18.17;;
25207;SDS011;13153;52.316;21.166;2023-09-12T03:48:19;28.27;;;18.50;;
25207;SDS011;13153;52.316;21.166;2023-09-12T03:50:45;32.03;;;19.67;;
25207;SDS011;13153;52.316;21.166;2023-09-12T03:53:11;26.15;;;17.92;;
25207;SDS011;13153;52.316;21.166;2023-09-12T03:55:39;24.75;;;17.92;;
25207;SDS011;13153;52.316;21.166;2023-09-12T03:58:05;25.23;;;18.38;;
25207;SDS011;13153;52.316;21.166;2023-09-12T04:00:30;32.13;;;18.70;;
25207;SDS011;13153;52.316;21.166;2023-09-12T04:02:56;30.63;;;18.70;;
25207;SDS011;13153;52.316;21.166;2023-09-12T04:05:22;24.20;;;17.35;;
25207;SDS011;13153;52.316;21.166;2023-09-12T04:07:48;22.90;;;17.23;;
25207;SDS011;13153;52.316;21.166;2023-09-12T04:10:13;36.78;;;18.58;;
25207;SDS011;13153;52.316;21.166;2023-09-12T04:12:39;27.98;;;18.65;;
25207;SDS011;13153;52.316;21.166;2023-09-12T04:15:05;28.45;;;18.10;;
25207;SDS011;13153;52.316;21.166;2023-09-12T04:17:31;32.03;;;18.85;;
25207;SDS011;13153;52.316;21.166;2023-09-12T04:19:57;25.60;;;17.88;;
25207;SDS011;13153;52.316;21.166;2023-09-12T04:22:23;39.72;;;19.55;;
25207;SDS011;13153;52.316;21.166;2023-09-12T04:24:49;44.42;;;20.60;;
25207;SDS011;13153;52.316;21.166;2023-09-12T04:27:14;32.60;;;18.35;;
25207;SDS011;13153;52.316;21.166;2023-09-12T04:29:40;39.95;;;19.45;;
25207;SDS011;13153;52.316;21.166;2023-09-12T04:32:06;41.42;;;20.65;;
25207;SDS011;13153;52.316;21.166;2023-09-12T04:34:31;45.03;;;19.52;;
25207;SDS011;13153;52.316;21.166;2023-09-12T04:36:57;43.78;;;19.05;;
25207;SDS011;13153;52.316;21.166;2023-09-12T04:39:23;37.42;;;20.38;;
25207;SDS011;13153;52.316;21.166;2023-09-12T04:41:49;40.60;;;20.75;;
25207;SDS011;13153;52.316;21.166;2023-09-12T04:44:15;27.92;;;20.20;;
25207;SDS011;13153;52.316;21.166;2023-09-12T04:46:41;33.22;;;21.70;;
25207;SDS011;13153;52.316;21.166;2023-09-12T04:49:06;33.35;;;20.77;;
25207;SDS011;13153;52.316;21.166;2023-09-12T04:51:32;32.40;;;20.30;;
25207;SDS011;13153;52.316;21.166;2023-09-12T04:53:58;28.05;;;20.17;;
25207;SDS011;13153;52.316;21.166;2023-09-12T04:56:23;29.20;;;19.85;;
25207;SDS011;13153;52.316;21.166;2023-09-12T04:58:49;35.08;;;20.02;;
25207;SDS011;13153;52.316;21.166;2023-09-12T05:01:15;29.33;;;20.33;;
25207;SDS011;13153;52.316;21.166;2023-09-12T05:03:42;37.90;;;21.77;;
25207;SDS011;13153;52.316;21.166;2023-09-12T05:06:12;33.15;;;20.13;;
25207;SDS011;13153;52.316;21.166;2023-09-12T05:08:38;33.08;;;20.45;;
25207;SDS011;13153;52.316;21.166;2023-09-12T05:11:04;33.50;;;20.13;;
25207;SDS011;13153;52.316;21.166;2023-09-12T05:13:30;30.45;;;20.05;;
25207;SDS011;13153;52.316;21.166;2023-09-12T05:15:56;28.05;;;19.65;;
25207;SDS011;13153;52.316;21.166;2023-09-12T05:18:22;27.17;;;19.77;;
25207;SDS011;13153;52.316;21.166;2023-09-12T05:20:48;33.95;;;19.92;;
25207;SDS011;13153;52.316;21.166;2023-09-12T05:23:14;30.48;;;20.25;;
25207;SDS011;13153;52.316;21.166;2023-09-12T05:25:40;27.17;;;20.25;;
25207;SDS011;13153;52.316;21.166;2023-09-12T05:28:06;30.30;;;21.05;;
25207;SDS011;13153;52.316;21.166;2023-09-12T05:30:32;28.98;;;20.80;;
25207;SDS011;13153;52.316;21.166;2023-09-12T05:32:58;30.13;;;20.52;;
25207;SDS011;13153;52.316;21.166;2023-09-12T05:35:24;29.13;;;20.42;;
25207;SDS011;13153;52.316;21.166;2023-09-12T05:37:50;30.50;;;20.27;;
25207;SDS011;13153;52.316;21.166;2023-09-12T05:40:17;25.27;;;20.02;;
25207;SDS011;13153;52.316;21.166;2023-09-12T05:42:43;26.70;;;19.55;;
25207;SDS011;13153;52.316;21.166;2023-09-12T05:45:09;32.17;;;20.05;;
25207;SDS011;13153;52.316;21.166;2023-09-12T05:47:35;30.42;;;20.15;;
25207;SDS011;13153;52.316;21.166;2023-09-12T05:50:01;32.75;;;19.17;;
25207;SDS011;13153;52.316;21.166;2023-09-12T05:52:30;32.85;;;18.80;;
25207;SDS011;13153;52.316;21.166;2023-09-12T05:54:56;29.13;;;18.83;;
25207;SDS011;13153;52.316;21.166;2023-09-12T05:57:22;31.38;;;18.88;;
25207;SDS011;13153;52.316;21.166;2023-09-12T05:59:48;31.52;;;18.05;;
25207;SDS011;13153;52.316;21.166;2023-09-12T06:02:15;22.88;;;17.27;;
25207;SDS011;13153;52.316;21.166;2023-09-12T06:04:42;26.20;;;18.27;;
25207;SDS011;13153;52.316;21.166;2023-09-12T06:07:09;27.23;;;17.30;;
25207;SDS011;13153;52.316;21.166;2023-09-12T06:09:35;27.23;;;17.73;;
25207;SDS011;13153;52.316;21.166;2023-09-12T06:12:01;28.95;;;17.20;;
25207;SDS011;13153;52.316;21.166;2023-09-12T06:14:27;23.80;;;16.27;;
25207;SDS011;13153;52.316;21.166;2023-09-12T06:16:53;30.15;;;16.73;;
25207;SDS011;13153;52.316;21.166;2023-09-12T06:19:19;24.20;;;15.15;;
25207;SDS011;13153;52.316;21.166;2023-09-12T06:21:45;23.80;;;15.88;;
25207;SDS011;13153;52.316;21.166;2023-09-12T06:24:12;20.23;;;15.20;;
25207;SDS011;13153;52.316;21.166;2023-09-12T06:26:40;20.13;;;14.90;;
25207;SDS011;13153;52.316;21.166;2023-09-12T06:29:06;24.63;;;15.23;;
25207;SDS011;13153;52.316;21.166;2023-09-12T06:31:32;24.67;;;15.23;;
25207;SDS011;13153;52.316;21.166;2023-09-12T06:33:59;24.58;;;15.25;;
25207;SDS011;13153;52.316;21.166;2023-09-12T06:36:25;24.45;;;15.27;;
25207;SDS011;13153;52.316;21.166;2023-09-12T06:38:51;23.17;;;15.55;;
25207;SDS011;13153;52.316;21.166;2023-09-12T06:41:20;25.33;;;15.57;;
25207;SDS011;13153;52.316;21.166;2023-09-12T06:43:46;27.80;;;14.88;;
25207;SDS011;13153;52.316;21.166;2023-09-12T06:46:12;20.25;;;14.40;;
25207;SDS011;13153;52.316;21.166;2023-09-12T06:48:39;22.58;;;15.50;;
25207;SDS011;13153;52.316;21.166;2023-09-12T06:51:05;23.85;;;15.38;;
25207;SDS011;13153;52.316;21.166;2023-09-12T06:53:33;23.67;;;15.25;;
25207;SDS011;13153;52.316;21.166;2023-09-12T06:55:59;24.88;;;15.65;;
25207;SDS011;13153;52.316;21.166;2023-09-12T06:58:25;23.92;;;14.10;;
25207;SDS011;13153;52.316;21.166;2023-09-12T07:00:51;24.55;;;14.40;;
25207;SDS011;13153;52.316;21.166;2023-09-12T07:03:17;21.20;;;13.68;;
25207;SDS011;13153;52.316;21.166;2023-09-12T07:05:43;21.90;;;13.20;;
25207;SDS011;13153;52.316;21.166;2023-09-12T07:08:09;17.45;;;11.70;;
25207;SDS011;13153;52.316;21.166;2023-09-12T07:10:35;18.73;;;12.52;;
25207;SDS011;13153;52.316;21.166;2023-09-12T07:13:02;17.38;;;12.10;;
25207;SDS011;13153;52.316;21.166;2023-09-12T07:15:28;21.05;;;12.10;;
25207;SDS011;13153;52.316;21.166;2023-09-12T07:17:54;16.10;;;11.32;;
25207;SDS011;13153;52.316;21.166;2023-09-12T07:20:21;15.85;;;11.20;;
25207;SDS011;13153;52.316;21.166;2023-09-12T07:22:47;15.55;;;11.43;;
25207;SDS011;13153;52.316;21.166;2023-09-12T07:25:13;19.50;;;11.52;;
25207;SDS011;13153;52.316;21.166;2023-09-12T07:27:39;17.77;;;11.10;;
25207;SDS011;13153;52.316;21.166;2023-09-12T07:30:05;14.95;;;10.25;;
25207;SDS011;13153;52.316;21.166;2023-09-12T07:32:32;16.48;;;10.73;;
25207;SDS011;13153;52.316;21.166;2023-09-12T07:34:58;17.63;;;11.20;;
25207;SDS011;13153;52.316;21.166;2023-09-12T07:37:24;17.08;;;10.20;;
25207;SDS011;13153;52.316;21.166;2023-09-12T07:39:50;15.50;;;10.05;;
25207;SDS011;13153;52.316;21.166;2023-09-12T07:42:16;15.75;;;9.80;;
25207;SDS011;13153;52.316;21.166;2023-09-12T07:44:48;14.77;;;10.52;;
25207;SDS011;13153;52.316;21.166;2023-09-12T07:47:13;13.80;;;9.43;;
25207;SDS011;13153;52.316;21.166;2023-09-12T07:49:39;15.70;;;10.25;;
25207;SDS011;13153;52.316;21.166;2023-09-12T07:52:05;15.02;;;10.07;;
25207;SDS011;13153;52.316;21.166;2023-09-12T07:54:31;15.57;;;10.00;;
25207;SDS011;13153;52.316;21.166;2023-09-12T07:56:57;13.07;;;9.05;;
25207;SDS011;13153;52.316;21.166;2023-09-12T07:59:24;13.55;;;10.20;;
25207;SDS011;13153;52.316;21.166;2023-09-12T08:01:50;11.93;;;10.05;;
25207;SDS011;13153;52.316;21.166;2023-09-12T08:04:16;13.68;;;9.48;;
25207;SDS011;13153;52.316;21.166;2023-09-12T08:06:42;17.42;;;9.52;;
25207;SDS011;13153;52.316;21.166;2023-09-12T08:09:08;15.27;;;9.75;;
25207;SDS011;13153;52.316;21.166;2023-09-12T08:11:35;16.75;;;11.07;;
25207;SDS011;13153;52.316;21.166;2023-09-12T08:14:01;17.60;;;10.93;;
25207;SDS011;13153;52.316;21.166;2023-09-12T08:16:27;19.35;;;10.88;;
25207;SDS011;13153;52.316;21.166;2023-09-12T08:18:52;21.67;;;11.50;;
25207;SDS011;13153;52.316;21.166;2023-09-12T08:21:18;19.73;;;10.25;;
25207;SDS011;13153;52.316;21.166;2023-09-12T08:23:44;13.02;;;9.60;;
25207;SDS011;13153;52.316;21.166;2023-09-12T08:26:10;13.05;;;9.80;;
25207;SDS011;13153;52.316;21.166;2023-09-12T08:28:36;14.45;;;9.77;;
25207;SDS011;13153;52.316;21.166;2023-09-12T08:31:02;14.77;;;9.35;;
25207;SDS011;13153;52.316;21.166;2023-09-12T08:33:28;14.30;;;9.90;;
25207;SDS011;13153;52.316;21.166;2023-09-12T08:35:53;17.63;;;10.68;;
25207;SDS011;13153;52.316;21.166;2023-09-12T08:38:19;15.48;;;9.80;;
25207;SDS011;13153;52.316;21.166;2023-09-12T08:40:49;14.07;;;9.98;;
25207;SDS011;13153;52.316;21.166;2023-09-12T08:43:16;13.35;;;9.25;;
25207;SDS011;13153;52.316;21.166;2023-09-12T08:45:42;11.07;;;8.52;;
25207;SDS011;13153;52.316;21.166;2023-09-12T08:48:09;12.25;;;8.93;;
25207;SDS011;13153;52.316;21.166;2023-09-12T08:50:38;13.82;;;9.10;;
25207;SDS011;13153;52.316;21.166;2023-09-12T08:53:04;13.40;;;9.70;;
25207;SDS011;13153;52.316;21.166;2023-09-12T08:55:33;13.02;;;9.40;;
25207;SDS011;13153;52.316;21.166;2023-09-12T08:58:02;11.90;;;9.00;;
25207;SDS011;13153;52.316;21.166;2023-09-12T09:00:30;10.70;;;8.43;;
25207;SDS011;13153;52.316;21.166;2023-09-12T09:02:57;16.42;;;9.60;;
25207;SDS011;13153;52.316;21.166;2023-09-12T09:05:24;12.45;;;8.80;;
25207;SDS011;13153;52.316;21.166;2023-09-12T09:07:52;14.50;;;9.57;;
25207;SDS011;13153;52.316;21.166;2023-09-12T09:10:21;15.02;;;9.70;;
25207;SDS011;13153;52.316;21.166;2023-09-12T09:12:48;15.70;;;9.07;;
25207;SDS011;13153;52.316;21.166;2023-09-12T09:15:24;14.23;;;9.02;;
25207;SDS011;13153;52.316;21.166;2023-09-12T09:17:56;15.00;;;8.48;;
25207;SDS011;13153;52.316;21.166;2023-09-12T09:20:26;14.23;;;9.30;;
25207;SDS011;13153;52.316;21.166;2023-09-12T09:22:59;10.68;;;8.73;;
25207;SDS011;13153;52.316;21.166;2023-09-12T09:25:37;14.48;;;9.40;;
25207;SDS011;13153;52.316;21.166;2023-09-12T09:28:16;11.95;;;7.82;;
25207;SDS011;13153;52.316;21.166;2023-09-12T09:30:44;10.10;;;7.47;;
25207;SDS011;13153;52.316;21.166;2023-09-12T09:33:13;14.55;;;7.55;;
25207;SDS011;13153;52.316;21.166;2023-09-12T09:35:42;13.00;;;7.80;;
25207;SDS011;13153;52.316;21.166;2023-09-12T09:38:12;8.82;;;6.95;;
25207;SDS011;13153;52.316;21.166;2023-09-12T09:40:41;12.45;;;7.97;;
25207;SDS011;13153;52.316;21.166;2023-09-12T09:43:08;12.07;;;7.55;;
25207;SDS011;13153;52.316;21.166;2023-09-12T09:45:42;10.88;;;7.50;;
25207;SDS011;13153;52.316;21.166;2023-09-12T09:48:20;19.42;;;7.60;;
25207;SDS011;13153;52.316;21.166;2023-09-12T09:50:48;11.50;;;7.45;;
25207;SDS011;13153;52.316;21.166;2023-09-12T09:53:15;11.27;;;7.72;;
25207;SDS011;13153;52.316;21.166;2023-09-12T09:55:41;10.65;;;7.90;;
25207;SDS011;13153;52.316;21.166;2023-09-12T09:58:14;19.63;;;9.00;;
25207;SDS011;13153;52.316;21.166;2023-09-12T10:00:44;9.98;;;7.82;;
25207;SDS011;13153;52.316;21.166;2023-09-12T10:03:13;10.00;;;7.68;;
25207;SDS011;13153;52.316;21.166;2023-09-12T10:05:45;12.48;;;8.85;;
25207;SDS011;13153;52.316;21.166;2023-09-12T10:08:16;14.32;;;7.95;;
25207;SDS011;13153;52.316;21.166;2023-09-12T10:10:44;14.18;;;7.43;;
25207;SDS011;13153;52.316;21.166;2023-09-12T10:13:12;9.15;;;7.35;;
25207;SDS011;13153;52.316;21.166;2023-09-12T10:15:41;12.90;;;8.20;;
25207;SDS011;13153;52.316;21.166;2023-09-12T10:18:10;12.50;;;8.35;;
25207;SDS011;13153;52.316;21.166;2023-09-12T10:20:50;13.90;;;7.97;;
25207;SDS011;13153;52.316;21.166;2023-09-12T10:26:16;13.88;;;8.00;;
25207;SDS011;13153;52.316;21.166;2023-09-12T10:28:43;8.68;;;7.50;;
25207;SDS011;13153;52.316;21.166;2023-09-12T10:31:11;10.77;;;8.60;;
25207;SDS011;13153;52.316;21.166;2023-09-12T10:33:38;12.77;;;7.55;;
25207;SDS011;13153;52.316;21.166;2023-09-12T10:36:08;7.88;;;7.05;;
25207;SDS011;13153;52.316;21.166;2023-09-12T10:38:36;8.00;;;7.18;;
25207;SDS011;13153;52.316;21.166;2023-09-12T10:41:12;8.07;;;7.22;;
25207;SDS011;13153;52.316;21.166;2023-09-12T10:43:39;8.43;;;7.43;;
25207;SDS011;13153;52.316;21.166;2023-09-12T10:46:07;9.73;;;7.47;;
25207;SDS011;13153;52.316;21.166;2023-09-12T10:48:35;10.23;;;7.55;;
25207;SDS011;13153;52.316;21.166;2023-09-12T10:51:02;9.77;;;7.20;;
25207;SDS011;13153;52.316;21.166;2023-09-12T10:53:30;10.63;;;7.65;;
25207;SDS011;13153;52.316;21.166;2023-09-12T10:56:14;14.55;;;8.07;;
25207;SDS011;13153;52.316;21.166;2023-09-12T11:01:34;10.68;;;7.25;;
25207;SDS011;13153;52.316;21.166;2023-09-12T11:06:48;8.27;;;7.47;;
25207;SDS011;13153;52.316;21.166;2023-09-12T11:09:21;8.68;;;7.78;;
25207;SDS011;13153;52.316;21.166;2023-09-12T11:11:49;8.35;;;7.50;;
25207;SDS011;13153;52.316;21.166;2023-09-12T11:14:33;10.02;;;7.55;;
25207;SDS011;13153;52.316;21.166;2023-09-12T11:19:46;10.40;;;8.38;;
25207;SDS011;13153;52.316;21.166;2023-09-12T11:22:27;9.40;;;8.40;;
25207;SDS011;13153;52.316;21.166;2023-09-12T11:24:56;10.98;;;7.65;;
25207;SDS011;13153;52.316;21.166;2023-09-12T11:27:31;8.30;;;7.38;;
25207;SDS011;13153;52.316;21.166;2023-09-12T11:30:09;8.45;;;7.63;;
25207;SDS011;13153;52.316;21.166;2023-09-12T11:32:36;8.80;;;7.82;;
25207;SDS011;13153;52.316;21.166;2023-09-12T11:35:09;11.27;;;8.32;;
25207;SDS011;13153;52.316;21.166;2023-09-12T11:37:36;9.40;;;8.07;;
25207;SDS011;13153;52.316;21.166;2023-09-12T11:40:23;10.45;;;8.45;;
25207;SDS011;13153;52.316;21.166;2023-09-12T11:45:23;9.80;;;7.75;;
25207;SDS011;13153;52.316;21.166;2023-09-12T11:47:49;10.30;;;7.85;;
25207;SDS011;13153;52.316;21.166;2023-09-12T11:50:32;11.32;;;8.45;;
25207;SDS011;13153;52.316;21.166;2023-09-12T11:53:07;9.63;;;8.07;;
25207;SDS011;13153;52.316;21.166;2023-09-12T11:55:54;10.68;;;8.07;;
25207;SDS011;13153;52.316;21.166;2023-09-12T11:58:24;12.02;;;7.93;;
25207;SDS011;13153;52.316;21.166;2023-09-12T12:00:53;11.15;;;7.88;;
25207;SDS011;13153;52.316;21.166;2023-09-12T12:03:25;9.95;;;8.18;;
25207;SDS011;13153;52.316;21.166;2023-09-12T12:05:53;10.63;;;7.65;;
25207;SDS011;13153;52.316;21.166;2023-09-12T12:08:20;9.02;;;8.13;;
25207;SDS011;13153;52.316;21.166;2023-09-12T12:10:50;11.32;;;8.27;;
25207;SDS011;13153;52.316;21.166;2023-09-12T12:13:20;9.05;;;7.95;;
25207;SDS011;13153;52.316;21.166;2023-09-12T12:15:50;10.75;;;8.20;;
25207;SDS011;13153;52.316;21.166;2023-09-12T12:18:16;11.57;;;8.35;;
25207;SDS011;13153;52.316;21.166;2023-09-12T12:20:42;12.77;;;8.23;;
25207;SDS011;13153;52.316;21.166;2023-09-12T12:23:08;9.27;;;7.88;;
25207;SDS011;13153;52.316;21.166;2023-09-12T12:25:34;8.68;;;7.65;;
25207;SDS011;13153;52.316;21.166;2023-09-12T12:28:01;10.90;;;8.50;;
25207;SDS011;13153;52.316;21.166;2023-09-12T12:30:32;9.55;;;8.48;;
25207;SDS011;13153;52.316;21.166;2023-09-12T12:33:00;11.82;;;8.75;;
25207;SDS011;13153;52.316;21.166;2023-09-12T12:35:32;10.43;;;8.15;;
25207;SDS011;13153;52.316;21.166;2023-09-12T12:37:57;9.43;;;8.40;;
25207;SDS011;13153;52.316;21.166;2023-09-12T12:40:24;9.48;;;8.57;;
25207;SDS011;13153;52.316;21.166;2023-09-12T12:42:50;9.13;;;8.23;;
25207;SDS011;13153;52.316;21.166;2023-09-12T12:45:20;8.70;;;7.80;;
25207;SDS011;13153;52.316;21.166;2023-09-12T12:47:56;10.70;;;7.97;;
25207;SDS011;13153;52.316;21.166;2023-09-12T12:50:25;9.70;;;7.85;;
25207;SDS011;13153;52.316;21.166;2023-09-12T12:52:50;9.45;;;8.02;;
25207;SDS011;13153;52.316;21.166;2023-09-12T12:55:16;9.40;;;8.00;;
25207;SDS011;13153;52.316;21.166;2023-09-12T12:57:44;11.02;;;8.27;;
25207;SDS011;13153;52.316;21.166;2023-09-12T13:00:13;9.35;;;8.35;;
25207;SDS011;13153;52.316;21.166;2023-09-12T13:02:41;9.30;;;7.78;;
25207;SDS011;13153;52.316;21.166;2023-09-12T13:05:21;11.73;;;8.18;;
25207;SDS011;13153;52.316;21.166;2023-09-12T13:07:56;9.75;;;8.60;;
25207;SDS011;13153;52.316;21.166;2023-09-12T13:10:22;13.05;;;8.50;;
25207;SDS011;13153;52.316;21.166;2023-09-12T13:12:48;12.27;;;8.90;;
25207;SDS011;13153;52.316;21.166;2023-09-12T13:15:15;10.88;;;8.48;;
25207;SDS011;13153;52.316;21.166;2023-09-12T13:17:42;10.20;;;8.65;;
25207;SDS011;13153;52.316;21.166;2023-09-12T13:20:09;10.90;;;8.85;;
25207;SDS011;13153;52.316;21.166;2023-09-12T13:22:36;9.77;;;8.77;;
25207;SDS011;13153;52.316;21.166;2023-09-12T13:25:03;11.57;;;8.88;;
25207;SDS011;13153;52.316;21.166;2023-09-12T13:27:30;13.15;;;9.40;;
25207;SDS011;13153;52.316;21.166;2023-09-12T13:29:56;11.13;;;8.50;;
25207;SDS011;13153;52.316;21.166;2023-09-12T13:32:21;9.30;;;8.38;;
25207;SDS011;13153;52.316;21.166;2023-09-12T13:34:47;10.35;;;8.40;;
25207;SDS011;13153;52.316;21.166;2023-09-12T13:37:14;9.65;;;8.57;;
25207;SDS011;13153;52.316;21.166;2023-09-12T13:39:41;10.75;;;7.78;;
25207;SDS011;13153;52.316;21.166;2023-09-12T13:42:13;9.77;;;8.40;;
25207;SDS011;13153;52.316;21.166;2023-09-12T13:44:44;9.75;;;8.60;;
25207;SDS011;13153;52.316;21.166;2023-09-12T13:47:12;11.95;;;8.82;;
25207;SDS011;13153;52.316;21.166;2023-09-12T13:49:37;12.70;;;10.27;;
25207;SDS011;13153;52.316;21.166;2023-09-12T13:52:03;11.13;;;8.93;;
25207;SDS011;13153;52.316;21.166;2023-09-12T13:54:29;10.07;;;8.82;;
25207;SDS011;13153;52.316;21.166;2023-09-12T13:56:55;12.57;;;9.35;;
25207;SDS011;13153;52.316;21.166;2023-09-12T13:59:21;10.88;;;9.77;;
25207;SDS011;13153;52.316;21.166;2023-09-12T14:01:47;10.77;;;9.50;;
25207;SDS011;13153;52.316;21.166;2023-09-12T14:04:13;12.55;;;9.85;;
25207;SDS011;13153;52.316;21.166;2023-09-12T14:06:39;12.30;;;9.93;;
25207;SDS011;13153;52.316;21.166;2023-09-12T14:09:05;14.88;;;10.10;;
25207;SDS011;13153;52.316;21.166;2023-09-12T14:11:31;11.00;;;9.75;;
25207;SDS011;13153;52.316;21.166;2023-09-12T14:13:57;10.93;;;9.57;;
25207;SDS011;13153;52.316;21.166;2023-09-12T14:16:22;13.02;;;9.30;;
25207;SDS011;13153;52.316;21.166;2023-09-12T14:18:48;11.77;;;9.65;;
25207;SDS011;13153;52.316;21.166;2023-09-12T14:21:14;10.32;;;9.32;;
25207;SDS011;13153;52.316;21.166;2023-09-12T14:23:40;13.85;;;9.98;;
25207;SDS011;13153;52.316;21.166;2023-09-12T14:26:05;12.93;;;9.18;;
25207;SDS011;13153;52.316;21.166;2023-09-12T14:28:31;10.68;;;9.57;;
25207;SDS011;13153;52.316;21.166;2023-09-12T14:30:59;12.23;;;9.48;;
25207;SDS011;13153;52.316;21.166;2023-09-12T14:33:26;11.38;;;9.52;;
25207;SDS011;13153;52.316;21.166;2023-09-12T14:35:51;16.27;;;9.02;;